createdAt,value
2022-08-05T00:04:57.102Z,4.70
2022-08-05T00:09:59.295Z,4.30
2022-08-05T00:15:54.214Z,4.20
2022-08-05T00:20:23.438Z,4.10
2022-08-05T00:30:52.075Z,4.00
2022-08-05T00:36:15.989Z,4.30
2022-08-05T00:41:51.546Z,4.10
2022-08-05T00:47:03.893Z,3.70
2022-08-05T00:52:07.870Z,3.80
2022-08-05T00:57:09.745Z,3.90
2022-08-05T01:02:11.945Z,3.70
2022-08-05T01:07:14.022Z,3.70
2022-08-05T01:12:22.357Z,3.30
2022-08-05T01:17:53.796Z,3.60
2022-08-05T01:23:14.386Z,4.10
2022-08-05T01:29:04.218Z,3.40
2022-08-05T01:34:29.981Z,4.00
2022-08-05T01:39:46.453Z,3.50
2022-08-05T01:44:53.818Z,3.60
2022-08-05T01:50:02.791Z,3.30
2022-08-05T01:55:12.607Z,4.10
2022-08-05T02:00:15.627Z,3.70
2022-08-05T02:05:23.478Z,4.20
2022-08-05T02:10:32.775Z,4.20
2022-08-05T02:15:43.558Z,4.20
2022-08-05T02:20:53.926Z,4.20
2022-08-05T02:26:04.740Z,3.30
2022-08-05T02:31:28.321Z,4.50
2022-08-05T02:36:34.989Z,3.30
2022-08-05T02:41:57.626Z,3.10
2022-08-05T02:47:09.414Z,3.50
2022-08-05T02:52:29.290Z,3.50
2022-08-05T02:58:12.113Z,3.10
2022-08-05T03:02:58.585Z,3.70
2022-08-05T03:08:08.766Z,3.20
2022-08-05T03:13:17.052Z,3.30
2022-08-05T03:18:19.034Z,3.30
2022-08-05T03:23:34.301Z,3.30
2022-08-05T03:28:37.099Z,3.60
2022-08-05T03:33:51.183Z,3.50
2022-08-05T03:38:55.219Z,3.40
2022-08-05T03:44:08.633Z,3.40
2022-08-05T03:49:14.977Z,3.40
2022-08-05T03:55:07.228Z,3.40
2022-08-05T03:59:57.989Z,3.70
2022-08-05T04:05:02.861Z,3.10
2022-08-05T04:10:06.253Z,3.40
2022-08-05T04:15:15.437Z,3.80
2022-08-05T04:20:22.133Z,3.30
2022-08-05T04:25:56.592Z,3.50
2022-08-05T04:30:48.614Z,3.60
2022-08-05T04:36:16.439Z,3.60
2022-08-05T04:41:13.539Z,3.70
2022-08-05T04:46:28.430Z,3.50
2022-08-05T04:51:31.616Z,3.30
2022-08-05T04:56:37.007Z,3.70
2022-08-05T05:02:08.159Z,3.50
2022-08-05T05:07:01.326Z,4.00
2022-08-05T05:12:06.318Z,4.10
2022-08-05T05:17:09.543Z,3.30
2022-08-05T05:22:23.797Z,3.70
2022-08-05T05:27:44.286Z,3.80
2022-08-05T05:32:47.153Z,3.20
2022-08-05T05:38:00.021Z,3.80
2022-08-05T05:43:04.337Z,4.00
2022-08-05T05:48:10.603Z,4.20
2022-08-05T05:53:22.147Z,3.50
2022-08-05T05:58:30.286Z,4.00
2022-08-05T06:03:54.407Z,3.80
2022-08-05T06:08:55.918Z,4.30
2022-08-05T06:13:58.182Z,3.60
2022-08-05T06:19:11.351Z,3.70
2022-08-05T06:24:15.864Z,3.70
2022-08-05T06:29:25.525Z,3.50
2022-08-05T06:34:45.036Z,4.00
2022-08-05T06:39:50.692Z,3.80
2022-08-05T06:44:53.894Z,3.70
2022-08-05T06:50:01.444Z,4.00
2022-08-05T06:55:07.234Z,3.30
2022-08-05T07:00:11.590Z,3.60
2022-08-05T07:05:18.943Z,3.30
2022-08-05T07:10:30.478Z,4.20
2022-08-05T07:16:01.734Z,3.80
2022-08-05T07:21:08.385Z,3.80
2022-08-05T07:26:13.299Z,3.80
2022-08-05T07:31:18.675Z,3.30
2022-08-05T07:36:42.726Z,3.70
2022-08-05T07:42:14.719Z,3.60
2022-08-05T07:47:10.166Z,3.50
2022-08-05T07:52:17.283Z,3.20
2022-08-05T07:57:41.529Z,3.40
2022-08-05T08:03:14.850Z,3.10
2022-08-05T08:08:12.353Z,3.40
2022-08-05T08:13:22.100Z,3.30
2022-08-05T08:18:32.620Z,3.30
2022-08-05T08:24:01.801Z,2.90
2022-08-05T08:29:29.319Z,2.80
2022-08-05T08:34:30.602Z,3.70
2022-08-05T08:39:37.549Z,3.10
2022-08-05T08:45:22.446Z,2.30
2022-08-05T08:50:30.437Z,2.80
2022-08-05T08:56:04.014Z,2.80
2022-08-05T09:00:58.849Z,3.20
2022-08-05T09:06:07.694Z,2.60
2022-08-05T09:11:13.849Z,3.40
2022-08-05T09:16:17.822Z,2.80
2022-08-05T09:22:24.960Z,2.70
2022-08-05T09:26:56.945Z,3.00
2022-08-05T09:32:41.353Z,2.70
2022-08-05T09:38:17.233Z,3.10
2022-08-05T09:42:53.935Z,2.80
2022-08-05T09:47:57.537Z,3.20
2022-08-05T09:53:01.209Z,2.60
2022-08-05T09:58:16.214Z,3.30
2022-08-05T10:03:21.256Z,3.20
2022-08-05T10:08:36.156Z,2.60
2022-08-05T10:13:45.697Z,2.60
2022-08-05T10:18:51.777Z,2.30
2022-08-05T10:24:00.386Z,2.70
2022-08-05T10:29:04.313Z,2.70
2022-08-05T10:34:10.138Z,2.30
2022-08-05T10:39:58.913Z,2.70
2022-08-05T10:44:57.623Z,2.90
2022-08-05T10:50:32.175Z,2.40
2022-08-05T10:55:26.469Z,2.60
2022-08-05T11:00:31.087Z,2.40
2022-08-05T11:05:35.892Z,2.90
2022-08-05T11:11:00.059Z,2.60
2022-08-05T11:16:33.937Z,2.40
2022-08-05T11:21:49.554Z,2.90
2022-08-05T11:27:51.036Z,2.50
2022-08-05T11:33:43.789Z,2.30
2022-08-05T11:38:51.927Z,2.60
2022-08-05T11:44:07.064Z,2.60
2022-08-05T11:49:14.796Z,2.00
2022-08-05T11:54:33.795Z,2.50
2022-08-05T11:59:41.280Z,2.00
2022-08-05T12:04:59.643Z,2.40
2022-08-05T12:10:09.544Z,2.70
2022-08-05T12:15:38.387Z,3.60
2022-08-05T12:20:43.381Z,2.60
2022-08-05T12:25:56.429Z,3.20
2022-08-05T12:31:02.428Z,2.50
2022-08-05T12:36:09.266Z,2.70
2022-08-05T12:41:14.909Z,2.50
2022-08-05T12:46:34.033Z,2.50
2022-08-05T12:52:12.790Z,2.60
2022-08-05T12:57:23.219Z,2.40
2022-08-05T13:02:30.449Z,2.70
2022-08-05T13:07:59.230Z,2.50
2022-08-05T13:12:58.448Z,2.40
2022-08-05T13:18:02.622Z,2.90
2022-08-05T13:23:07.351Z,2.50
2022-08-05T13:28:10.975Z,2.70
2022-08-05T13:34:22.197Z,2.30
2022-08-05T13:38:42.451Z,2.20
2022-08-05T13:43:54.502Z,2.50
2022-08-05T13:49:00.673Z,2.60
2022-08-05T13:54:12.310Z,2.40
2022-08-05T13:59:20.254Z,2.50
2022-08-05T14:04:43.382Z,2.40
2022-08-05T14:09:54.289Z,2.40
2022-08-05T14:14:58.092Z,2.70
2022-08-05T14:20:06.759Z,2.80
2022-08-05T14:25:19.242Z,2.70
2022-08-05T14:30:27.889Z,3.00
2022-08-05T14:35:50.317Z,2.80
2022-08-05T14:40:55.393Z,3.00
2022-08-05T14:51:03.151Z,3.10
2022-08-05T14:56:06.870Z,2.80
2022-08-05T15:01:10.849Z,3.20
2022-08-05T15:06:19.938Z,3.10
2022-08-05T15:11:53.163Z,3.30
2022-08-05T15:16:56.767Z,2.90
2022-08-05T15:22:01.496Z,3.00
2022-08-05T15:27:04.859Z,3.00
2022-08-05T15:32:12.551Z,2.90
2022-08-05T15:37:19.354Z,2.70
2022-08-05T15:42:55.699Z,3.00
2022-08-05T15:48:04.378Z,2.40
2022-08-05T15:53:09.236Z,2.60
2022-08-05T15:58:16.708Z,2.40
2022-08-05T16:03:20.325Z,2.90
2022-08-05T16:08:24.250Z,2.80
2022-08-05T16:13:35.021Z,2.80
2022-08-05T16:18:52.747Z,3.30
2022-08-05T16:24:00.163Z,2.60
2022-08-05T16:29:06.271Z,2.90
2022-08-05T16:39:15.815Z,3.20
2022-08-05T16:44:19.073Z,2.80
2022-08-05T16:49:26.785Z,3.10
2022-08-05T16:54:33.034Z,3.00
2022-08-05T17:00:00.322Z,3.00
2022-08-05T17:05:06.556Z,2.90
2022-08-05T17:10:10.601Z,3.40
2022-08-05T17:15:15.618Z,4.10
2022-08-05T17:20:22.900Z,3.90
2022-08-05T17:25:33.615Z,3.80
2022-08-05T17:30:42.413Z,4.90
2022-08-05T17:36:08.809Z,4.50
2022-08-05T17:42:18.235Z,3.80
2022-08-05T17:46:37.515Z,3.50
2022-08-05T17:51:41.747Z,3.50
2022-08-05T17:56:51.374Z,3.60
2022-08-05T18:01:54.614Z,3.60
2022-08-05T18:07:00.402Z,3.70
2022-08-05T18:12:05.700Z,6.50
2022-08-05T18:17:59.067Z,4.00
2022-08-05T18:22:36.201Z,8.00
2022-08-05T18:27:52.343Z,5.60
2022-08-05T18:33:00.313Z,4.10
2022-08-05T18:38:05.003Z,4.80
2022-08-05T18:43:09.154Z,5.80
2022-08-05T18:48:30.570Z,5.50
2022-08-05T18:53:45.681Z,5.70
2022-08-05T18:58:50.847Z,5.20
2022-08-05T19:03:56.946Z,5.30
2022-08-05T19:09:00.091Z,4.80
2022-08-05T19:14:15.258Z,6.20
2022-08-05T19:19:27.938Z,6.90
2022-08-05T19:24:34.648Z,7.30
2022-08-05T19:29:39.539Z,7.30
2022-08-05T19:34:54.366Z,7.40
2022-08-05T19:40:00.031Z,7.00
2022-08-05T19:45:05.617Z,6.60
2022-08-05T19:50:12.019Z,7.40
2022-08-05T19:56:14.386Z,7.70
2022-08-05T20:00:38.963Z,11.00
2022-08-05T20:05:51.246Z,9.20
2022-08-05T20:10:55.618Z,10.70
2022-08-05T20:15:59.744Z,13.70
2022-08-05T20:21:05.272Z,12.70
2022-08-05T20:31:28.786Z,10.00
2022-08-05T20:36:45.266Z,7.90
2022-08-05T20:41:48.554Z,6.80
2022-08-05T20:46:51.865Z,7.40
2022-08-05T20:51:57.357Z,7.90
2022-08-05T20:57:05.334Z,7.30
2022-08-05T21:02:12.852Z,8.10
2022-08-05T21:07:21.792Z,7.50
2022-08-05T21:12:26.198Z,7.50
2022-08-05T21:17:30.152Z,8.90
2022-08-05T21:22:33.567Z,7.70
2022-08-05T21:27:38.992Z,7.60
2022-08-05T21:32:42.542Z,6.70
2022-08-05T21:37:47.141Z,6.70
2022-08-05T21:42:53.965Z,6.90
2022-08-05T21:47:57.970Z,6.70
2022-08-05T21:53:04.549Z,5.50
2022-08-05T21:58:24.831Z,6.40
2022-08-05T22:03:48.417Z,6.50
2022-08-05T22:08:54.977Z,6.20
2022-08-05T22:14:33.775Z,5.90
2022-08-05T22:20:02.074Z,6.40
2022-08-05T22:25:03.893Z,5.40
2022-08-05T22:30:15.343Z,4.70
2022-08-05T22:35:20.558Z,6.00
2022-08-05T22:40:28.187Z,5.50
2022-08-05T22:50:40.409Z,4.60
2022-08-05T22:55:56.673Z,3.90
